createdAt,value
2019-05-22T00:00:19.689Z,0.00
2019-05-22T00:01:20.122Z,0.00
2019-05-22T00:02:20.548Z,0.00
2019-05-22T00:03:21.059Z,0.00
2019-05-22T00:04:21.492Z,0.00
2019-05-22T00:05:21.908Z,0.00
2019-05-22T00:06:22.407Z,0.00
2019-05-22T00:07:22.842Z,0.00
2019-05-22T00:08:23.347Z,0.00
2019-05-22T00:09:23.767Z,0.00
2019-05-22T00:10:24.261Z,0.00
2019-05-22T00:11:24.690Z,0.00
2019-05-22T00:12:25.200Z,0.00
2019-05-22T00:13:25.661Z,0.00
2019-05-22T00:14:26.150Z,0.00
2019-05-22T00:15:26.574Z,0.00
2019-05-22T00:16:28.242Z,0.00
2019-05-22T00:17:28.777Z,0.00
2019-05-22T00:18:29.270Z,0.00
2019-05-22T00:19:29.731Z,0.00
2019-05-22T00:20:35.206Z,0.00
2019-05-22T00:21:35.633Z,0.00
2019-05-22T00:22:36.239Z,0.00
2019-05-22T00:23:36.685Z,0.00
2019-05-22T00:24:37.175Z,0.00
2019-05-22T00:25:37.588Z,0.00
2019-05-22T00:26:40.043Z,0.00
2019-05-22T00:27:40.461Z,0.00
2019-05-22T00:28:40.908Z,0.00
2019-05-22T00:29:41.347Z,0.00
2019-05-22T00:40:45.792Z,0.00
2019-05-22T00:41:46.228Z,0.00
2019-05-22T00:43:14.057Z,0.00
2019-05-22T00:44:14.928Z,0.00
2019-05-22T00:47:39.803Z,0.00
2019-05-22T00:48:40.236Z,0.00
2019-05-22T00:49:40.687Z,0.00
2019-05-22T00:50:41.127Z,0.00
2019-05-22T00:51:41.661Z,0.00
2019-05-22T00:52:42.099Z,0.00
2019-05-22T00:53:42.529Z,0.00
2019-05-22T00:54:42.975Z,0.00
2019-05-22T00:55:43.420Z,0.00
2019-05-22T00:56:43.847Z,0.00
2019-05-22T00:57:44.275Z,0.00
2019-05-22T00:58:44.713Z,0.00
2019-05-22T00:59:45.198Z,0.00
2019-05-22T01:00:45.643Z,0.00
2019-05-22T01:01:46.116Z,0.00
2019-05-22T01:02:46.548Z,0.00
2019-05-22T01:03:47.015Z,0.00
2019-05-22T01:04:47.462Z,0.00
2019-05-22T01:05:47.892Z,0.00
2019-05-22T01:06:48.316Z,0.00
2019-05-22T01:07:48.736Z,0.00
2019-05-22T01:08:49.160Z,0.00
2019-05-22T01:09:49.601Z,0.00
2019-05-22T01:10:50.028Z,0.00
2019-05-22T01:11:50.452Z,0.00
2019-05-22T01:12:50.962Z,0.00
2019-05-22T01:13:52.530Z,0.00
2019-05-22T01:14:52.973Z,0.00
2019-05-22T01:15:53.397Z,0.00
2019-05-22T01:16:53.823Z,0.00
2019-05-22T01:17:54.246Z,0.00
2019-05-22T01:18:54.670Z,0.00
2019-05-22T01:19:55.122Z,0.00
2019-05-22T01:20:55.558Z,0.00
2019-05-22T01:21:55.978Z,0.00
2019-05-22T01:22:56.397Z,0.00
2019-05-22T01:24:03.450Z,0.00
2019-05-22T01:25:03.906Z,0.00
2019-05-22T01:26:04.328Z,0.00
2019-05-22T01:27:04.797Z,0.00
2019-05-22T01:28:05.247Z,0.00
2019-05-22T01:29:05.674Z,0.00
2019-05-22T01:30:06.116Z,0.00
2019-05-22T01:31:06.541Z,0.00
2019-05-22T01:32:07.040Z,0.00
2019-05-22T01:33:07.464Z,0.00
2019-05-22T01:35:23.365Z,0.00
2019-05-22T01:36:23.797Z,0.00
2019-05-22T01:37:24.228Z,0.00
2019-05-22T01:38:24.739Z,0.00
2019-05-22T01:39:25.171Z,0.00
2019-05-22T01:40:25.714Z,0.00
2019-05-22T01:41:26.144Z,0.00
2019-05-22T01:42:26.607Z,0.00
2019-05-22T01:43:27.037Z,0.00
2019-05-22T01:44:27.546Z,0.00
2019-05-22T01:45:27.999Z,0.00
2019-05-22T01:46:28.489Z,0.00
2019-05-22T01:47:28.921Z,0.00
2019-05-22T01:48:36.387Z,0.00
2019-05-22T01:49:36.887Z,0.00
2019-05-22T01:50:38.381Z,0.00
2019-05-22T01:51:38.817Z,0.00
2019-05-22T01:52:39.282Z,0.00
2019-05-22T01:53:39.719Z,0.00
2019-05-22T01:54:40.214Z,0.00
2019-05-22T01:55:40.667Z,0.00
2019-05-22T01:56:41.146Z,0.00
2019-05-22T01:57:41.584Z,0.00
2019-05-22T01:58:42.083Z,0.00
2019-05-22T01:59:42.506Z,0.00
2019-05-22T02:00:43.069Z,0.00
2019-05-22T02:01:43.574Z,0.00
2019-05-22T02:02:44.057Z,0.00
2019-05-22T02:03:44.501Z,0.00
2019-05-22T02:04:44.929Z,0.00
2019-05-22T02:05:45.390Z,0.00
2019-05-22T02:06:45.836Z,0.00
2019-05-22T02:07:46.266Z,0.00
2019-05-22T02:08:46.759Z,0.00
2019-05-22T02:09:47.183Z,0.00
2019-05-22T02:10:47.726Z,0.00
2019-05-22T02:11:48.156Z,0.00
2019-05-22T02:12:48.630Z,0.00
2019-05-22T02:13:49.061Z,0.00
2019-05-22T02:14:49.561Z,0.00
2019-05-22T02:15:50.015Z,0.00
2019-05-22T02:16:56.995Z,0.00
2019-05-22T02:17:56.899Z,0.00
2019-05-22T02:18:57.374Z,0.00
2019-05-22T02:19:57.791Z,0.00
2019-05-22T02:20:58.343Z,0.00
2019-05-22T02:21:58.815Z,0.00
2019-05-22T02:22:59.346Z,0.00
2019-05-22T02:23:59.766Z,0.00
2019-05-22T02:25:00.258Z,0.00
2019-05-22T02:26:00.705Z,0.00
2019-05-22T02:27:01.186Z,0.00
2019-05-22T02:28:01.620Z,0.00
2019-05-22T02:29:02.127Z,0.00
2019-05-22T02:30:02.562Z,0.00
2019-05-22T02:31:03.097Z,0.00
2019-05-22T02:32:03.529Z,0.00
2019-05-22T02:33:04.038Z,0.00
2019-05-22T02:34:04.512Z,0.00
2019-05-22T02:35:05.037Z,0.00
2019-05-22T02:36:05.521Z,0.00
2019-05-22T02:37:06.083Z,0.00
2019-05-22T02:38:06.521Z,0.00
2019-05-22T02:39:07.007Z,0.00
2019-05-22T02:40:07.450Z,0.00
2019-05-22T02:41:07.985Z,0.00
2019-05-22T02:42:08.444Z,0.00
2019-05-22T02:43:08.978Z,0.00
2019-05-22T02:44:09.396Z,0.00
2019-05-22T02:45:09.942Z,0.00
2019-05-22T02:46:10.438Z,0.00
2019-05-22T02:47:18.941Z,0.00
2019-05-22T02:48:17.357Z,0.00
2019-05-22T02:49:17.835Z,0.00
2019-05-22T02:50:18.265Z,0.00
2019-05-22T02:51:18.803Z,0.00
2019-05-22T02:52:19.237Z,0.00
2019-05-22T02:53:19.702Z,0.00
2019-05-22T02:54:20.135Z,0.00
2019-05-22T02:55:20.674Z,0.00
2019-05-22T02:56:21.167Z,0.00
2019-05-22T02:57:22.694Z,0.00
2019-05-22T02:58:23.116Z,0.00
2019-05-22T02:59:23.630Z,0.00
2019-05-22T03:00:24.051Z,0.00
2019-05-22T03:01:24.603Z,0.00
2019-05-22T03:02:25.031Z,0.00
2019-05-22T03:03:25.506Z,0.00
2019-05-22T03:04:25.944Z,0.00
2019-05-22T03:05:26.505Z,0.00
2019-05-22T03:06:26.968Z,0.00
2019-05-22T03:07:28.499Z,0.00
2019-05-22T03:08:28.930Z,0.00
2019-05-22T03:09:30.458Z,0.00
2019-05-22T03:10:30.883Z,0.00
2019-05-22T03:11:34.985Z,4.00
2019-05-22T03:12:35.746Z,4.00
2019-05-22T03:13:36.323Z,4.00
2019-05-22T03:14:36.750Z,4.00
2019-05-22T03:15:37.257Z,0.00
2019-05-22T03:16:37.689Z,0.00
2019-05-22T03:17:38.200Z,4.00
2019-05-22T03:18:38.643Z,4.00
2019-05-22T03:24:16.053Z,8.00
2019-05-22T03:25:16.493Z,8.00
2019-05-22T03:31:04.543Z,16.00
2019-05-22T03:36:04.956Z,20.00
2019-05-22T03:37:05.403Z,20.00
2019-05-22T03:38:05.853Z,20.00
2019-05-22T03:39:06.278Z,28.00
2019-05-22T03:40:06.709Z,28.00
2019-05-22T03:41:07.128Z,32.00
2019-05-22T03:42:07.613Z,40.00
2019-05-22T03:43:08.053Z,40.00
2019-05-22T03:44:10.596Z,48.00
2019-05-22T03:45:11.019Z,52.00
2019-05-22T03:46:11.535Z,52.00
2019-05-22T03:47:11.966Z,56.00
2019-05-22T03:48:12.504Z,56.00
2019-05-22T03:49:28.204Z,44.00
2019-05-22T03:50:19.358Z,40.00
2019-05-22T03:51:19.859Z,48.00
2019-05-22T03:52:20.282Z,48.00
2019-05-22T03:53:20.837Z,48.00
2019-05-22T03:54:21.263Z,48.00
2019-05-22T03:55:21.733Z,56.00
2019-05-22T03:56:22.162Z,60.00
2019-05-22T03:57:22.662Z,64.00
2019-05-22T03:58:23.111Z,72.00
2019-05-22T03:59:23.595Z,60.00
2019-05-22T04:00:24.019Z,68.00
2019-05-22T04:01:24.558Z,72.00
2019-05-22T04:02:25.021Z,76.00
2019-05-22T04:03:25.499Z,80.00
2019-05-22T04:04:25.919Z,92.00
2019-05-22T04:05:26.408Z,84.00
2019-05-22T04:06:26.842Z,100.00
2019-05-22T04:07:27.335Z,100.00
2019-05-22T04:08:27.774Z,104.00
2019-05-22T04:09:28.276Z,80.00
2019-05-22T04:10:28.706Z,88.00
2019-05-22T04:11:29.308Z,104.00
2019-05-22T04:12:29.727Z,108.00
2019-05-22T04:13:30.291Z,104.00
2019-05-22T04:14:30.734Z,116.00
2019-05-22T04:15:31.181Z,108.00
2019-05-22T04:16:31.600Z,112.00
2019-05-22T04:17:32.124Z,112.00
2019-05-22T04:18:32.567Z,132.00
2019-05-22T04:19:48.814Z,132.00
2019-05-22T04:20:41.511Z,120.00
2019-05-22T04:21:43.093Z,108.00
2019-05-22T04:22:43.514Z,104.00
2019-05-22T04:23:44.986Z,88.00
2019-05-22T04:24:45.450Z,72.00
2019-05-22T04:25:45.982Z,72.00
2019-05-22T04:26:46.410Z,72.00
2019-05-22T04:27:46.936Z,72.00
2019-05-22T04:28:47.383Z,76.00
2019-05-22T04:29:47.854Z,76.00
2019-05-22T04:30:48.286Z,84.00
2019-05-22T04:31:48.801Z,104.00
2019-05-22T04:32:49.244Z,100.00
2019-05-22T04:33:49.764Z,96.00
2019-05-22T04:34:50.215Z,84.00
2019-05-22T04:35:51.700Z,92.00
2019-05-22T04:36:52.197Z,100.00
2019-05-22T04:37:52.725Z,104.00
2019-05-22T04:38:53.173Z,100.00
2019-05-22T04:39:53.761Z,116.00
2019-05-22T04:40:54.209Z,124.00
2019-05-22T04:41:54.697Z,112.00
2019-05-22T04:42:55.119Z,132.00
2019-05-22T04:43:55.684Z,120.00
2019-05-22T04:44:56.110Z,124.00
2019-05-22T04:45:56.573Z,132.00
2019-05-22T04:46:57.003Z,132.00
2019-05-22T04:47:59.553Z,132.00
2019-05-22T04:49:00.002Z,128.00
2019-05-22T04:50:07.349Z,112.00
2019-05-22T04:51:07.932Z,136.00
2019-05-22T04:52:08.389Z,132.00
2019-05-22T04:53:08.832Z,128.00
2019-05-22T04:54:09.354Z,128.00
2019-05-22T04:55:09.795Z,140.00
2019-05-22T04:56:10.357Z,140.00
2019-05-22T04:57:10.796Z,156.00
2019-05-22T04:58:11.302Z,132.00
2019-05-22T04:59:11.816Z,168.00
2019-05-22T05:00:12.348Z,248.00
2019-05-22T05:01:12.790Z,232.00
2019-05-22T05:02:30.205Z,268.00
2019-05-22T05:03:30.658Z,308.00
2019-05-22T05:11:04.306Z,384.00
2019-05-22T05:12:04.731Z,484.00
2019-05-22T05:13:07.249Z,536.00
2019-05-22T05:14:07.708Z,488.00
2019-05-22T05:15:08.138Z,468.00
2019-05-22T05:16:08.580Z,476.00
2019-05-22T05:17:09.014Z,516.00
2019-05-22T05:18:09.443Z,608.00
2019-05-22T05:19:10.012Z,588.00
2019-05-22T05:20:22.150Z,540.00
2019-05-22T05:21:16.866Z,556.00
2019-05-22T05:22:17.280Z,484.00
2019-05-22T05:23:17.700Z,536.00
2019-05-22T05:24:18.308Z,612.00
2019-05-22T05:25:18.798Z,600.00
2019-05-22T05:26:19.230Z,604.00
2019-05-22T05:27:19.655Z,620.00
2019-05-22T05:28:20.080Z,668.00
2019-05-22T05:29:20.526Z,636.00
2019-05-22T05:30:20.958Z,616.00
2019-05-22T05:31:21.502Z,696.00
2019-05-22T05:32:21.930Z,672.00
2019-05-22T05:33:23.461Z,732.00
2019-05-22T05:34:24.210Z,712.00
2019-05-22T05:35:24.625Z,736.00
2019-05-22T05:36:25.051Z,792.00
2019-05-22T05:37:25.540Z,732.00
2019-05-22T05:38:25.958Z,716.00
2019-05-22T05:39:26.406Z,740.00
2019-05-22T05:40:26.846Z,812.00
2019-05-22T05:41:27.274Z,764.00
2019-05-22T05:42:27.695Z,788.00
2019-05-22T05:43:28.138Z,720.00
2019-05-22T05:44:28.797Z,764.00
2019-05-22T05:45:29.229Z,892.00
2019-05-22T05:46:29.662Z,880.00
2019-05-22T05:47:30.085Z,920.00
2019-05-22T05:48:30.514Z,892.00
2019-05-22T05:49:31.225Z,888.00
2019-05-22T05:50:39.418Z,676.00
2019-05-22T05:51:38.091Z,720.00
2019-05-22T05:52:38.598Z,680.00
2019-05-22T05:53:39.031Z,764.00
2019-05-22T05:54:39.546Z,888.00
2019-05-22T05:55:39.991Z,972.00
2019-05-22T05:56:40.521Z,1080.00
2019-05-22T05:57:40.943Z,1160.00
2019-05-22T05:58:41.544Z,1108.00
2019-05-22T05:59:42.092Z,1180.00
2019-05-22T06:00:44.658Z,1056.00
2019-05-22T06:01:45.242Z,1044.00
2019-05-22T06:02:56.054Z,1184.00
2019-05-22T06:03:53.183Z,1256.00
2019-05-22T06:04:53.663Z,1392.00
2019-05-22T06:05:54.091Z,1268.00
2019-05-22T06:06:54.515Z,1240.00
2019-05-22T06:07:54.936Z,1308.00
2019-05-22T06:08:55.392Z,1168.00
2019-05-22T06:09:55.874Z,1248.00
2019-05-22T06:10:56.321Z,1360.00
2019-05-22T06:11:56.759Z,1212.00
2019-05-22T06:12:57.186Z,1456.00
2019-05-22T06:13:57.607Z,1260.00
2019-05-22T06:14:58.066Z,1236.00
2019-05-22T06:15:58.488Z,976.00
2019-05-22T06:16:58.911Z,1212.00
2019-05-22T06:17:59.351Z,1304.00
2019-05-22T06:18:59.845Z,1372.00
2019-05-22T06:20:00.366Z,1336.00
2019-05-22T06:21:04.330Z,1328.00
2019-05-22T06:22:05.120Z,1404.00
2019-05-22T06:23:05.602Z,1404.00
2019-05-22T06:24:06.068Z,1532.00
2019-05-22T06:25:06.523Z,1720.00
2019-05-22T06:26:07.064Z,1804.00
2019-05-22T06:27:07.615Z,1884.00
2019-05-22T06:28:08.054Z,1796.00
2019-05-22T06:29:08.492Z,1860.00
2019-05-22T06:30:10.056Z,1996.00
2019-05-22T06:31:10.494Z,2080.00
2019-05-22T06:32:11.046Z,2088.00
2019-05-22T06:33:11.582Z,1924.00
2019-05-22T06:34:12.073Z,1940.00
2019-05-22T06:35:12.549Z,2044.00
2019-05-22T06:36:13.069Z,1972.00
2019-05-22T06:37:13.583Z,1832.00
2019-05-22T06:38:14.023Z,1864.00
2019-05-22T06:39:14.447Z,1792.00
2019-05-22T06:40:14.919Z,1712.00
2019-05-22T06:41:15.353Z,1696.00
2019-05-22T06:42:15.785Z,1836.00
2019-05-22T06:43:16.245Z,1764.00
2019-05-22T06:44:16.678Z,1868.00
2019-05-22T06:45:17.223Z,1860.00
2019-05-22T06:46:17.664Z,1632.00
2019-05-22T06:47:18.097Z,1796.00
2019-05-22T06:48:18.531Z,1556.00
2019-05-22T06:49:19.044Z,1616.00
2019-05-22T06:50:19.480Z,1788.00
2019-05-22T06:51:19.954Z,1904.00
2019-05-22T06:52:20.412Z,1804.00
2019-05-22T06:53:20.838Z,1676.00
2019-05-22T06:54:21.288Z,1600.00
2019-05-22T06:55:21.723Z,1520.00
2019-05-22T06:56:23.864Z,1452.00
2019-05-22T06:57:24.363Z,1456.00
2019-05-22T06:58:24.797Z,1292.00
2019-05-22T06:59:25.221Z,1296.00
2019-05-22T07:00:25.637Z,1220.00
2019-05-22T07:01:26.082Z,1260.00
2019-05-22T07:02:26.509Z,1176.00
2019-05-22T07:03:26.933Z,1168.00
2019-05-22T07:04:27.452Z,1244.00
2019-05-22T07:05:27.884Z,1296.00
2019-05-22T07:06:28.409Z,1228.00
2019-05-22T07:07:28.826Z,1164.00
2019-05-22T07:08:29.310Z,1108.00
2019-05-22T07:09:29.740Z,1168.00
2019-05-22T07:10:36.712Z,1264.00
2019-05-22T07:11:37.190Z,1220.00
2019-05-22T07:12:37.632Z,1124.00
2019-05-22T07:13:38.058Z,1100.00
2019-05-22T07:14:38.580Z,1048.00
2019-05-22T07:15:39.046Z,1096.00
2019-05-22T07:16:39.559Z,1096.00
2019-05-22T07:17:40.058Z,1128.00
2019-05-22T07:18:40.544Z,1076.00
2019-05-22T07:19:40.969Z,1096.00
2019-05-22T07:20:41.514Z,1020.00
2019-05-22T07:21:41.979Z,992.00
2019-05-22T07:22:42.527Z,1076.00
2019-05-22T07:23:42.965Z,1000.00
2019-05-22T07:24:43.399Z,1012.00
2019-05-22T07:25:43.844Z,1048.00
2019-05-22T07:26:44.298Z,1048.00
2019-05-22T07:27:44.733Z,1036.00
2019-05-22T07:28:45.174Z,1132.00
2019-05-22T07:29:45.604Z,1084.00
2019-05-22T07:30:46.069Z,1136.00
2019-05-22T07:31:46.593Z,1112.00
2019-05-22T07:32:47.036Z,1084.00
2019-05-22T07:33:47.486Z,1168.00
2019-05-22T07:34:47.957Z,1184.00
2019-05-22T07:36:07.843Z,1252.00
2019-05-22T07:36:54.801Z,1236.00
2019-05-22T07:37:55.233Z,1220.00
2019-05-22T07:38:55.656Z,1384.00
2019-05-22T07:39:56.107Z,1376.00
2019-05-22T07:40:56.612Z,1328.00
2019-05-22T07:41:57.096Z,1312.00
2019-05-22T07:42:57.600Z,1324.00
2019-05-22T07:43:59.083Z,1340.00
2019-05-22T07:44:59.566Z,1416.00
2019-05-22T07:46:05.004Z,1476.00
2019-05-22T07:47:05.475Z,1484.00
2019-05-22T07:48:05.916Z,1464.00
2019-05-22T07:49:06.355Z,1580.00
2019-05-22T07:50:06.888Z,1496.00
2019-05-22T07:51:07.380Z,1632.00
2019-05-22T07:52:07.858Z,1584.00
2019-05-22T07:53:08.288Z,1492.00
2019-05-22T07:54:08.719Z,1300.00
2019-05-22T07:55:09.165Z,1372.00
2019-05-22T07:56:09.694Z,1304.00
2019-05-22T07:57:10.204Z,1296.00
2019-05-22T07:58:10.673Z,1280.00
2019-05-22T07:59:11.141Z,1140.00
2019-05-22T08:00:11.602Z,1152.00
2019-05-22T08:01:12.027Z,1128.00
2019-05-22T08:02:13.485Z,1276.00
2019-05-22T08:03:13.910Z,1240.00
2019-05-22T08:04:14.339Z,1276.00
2019-05-22T08:05:14.775Z,1268.00
2019-05-22T08:06:15.326Z,1260.00
2019-05-22T08:07:15.797Z,1272.00
2019-05-22T08:08:18.759Z,1248.00
2019-05-22T08:09:19.398Z,1212.00
2019-05-22T08:10:19.846Z,1324.00
2019-05-22T08:11:20.283Z,1288.00
2019-05-22T08:12:20.758Z,1340.00
2019-05-22T08:13:21.193Z,1448.00
2019-05-22T08:14:21.632Z,1540.00
2019-05-22T08:15:22.080Z,1448.00
2019-05-22T08:16:22.509Z,1476.00
2019-05-22T08:17:22.978Z,1428.00
2019-05-22T08:18:23.403Z,1620.00
2019-05-22T08:19:23.848Z,1944.00
2019-05-22T08:20:24.301Z,1924.00
2019-05-22T08:21:24.749Z,1848.00
2019-05-22T08:22:25.211Z,2160.00
2019-05-22T08:23:25.637Z,2148.00
2019-05-22T08:24:26.062Z,2004.00
2019-05-22T08:25:26.496Z,1912.00
2019-05-22T08:26:26.918Z,1736.00
2019-05-22T08:27:27.412Z,1536.00
2019-05-22T08:28:27.888Z,1608.00
2019-05-22T08:29:28.357Z,1768.00
2019-05-22T08:30:28.783Z,1736.00
2019-05-22T08:31:29.226Z,1804.00
2019-05-22T08:32:29.701Z,1928.00
2019-05-22T08:33:30.165Z,1972.00
2019-05-22T08:34:30.622Z,2092.00
2019-05-22T08:35:31.058Z,2104.00
2019-05-22T08:36:31.488Z,2132.00
2019-05-22T08:37:32.060Z,2304.00
2019-05-22T08:38:32.497Z,2824.00
2019-05-22T08:39:32.937Z,2656.00
2019-05-22T08:40:33.380Z,2276.00
2019-05-22T08:41:33.817Z,2124.00
2019-05-22T08:42:35.624Z,2028.00
2019-05-22T08:43:55.890Z,2024.00
2019-05-22T08:44:42.629Z,1792.00
2019-05-22T08:45:43.050Z,1964.00
2019-05-22T08:46:43.490Z,2336.00
2019-05-22T08:47:43.945Z,2088.00
2019-05-22T08:48:48.008Z,2556.00
2019-05-22T08:49:48.829Z,3100.00
2019-05-22T08:50:49.271Z,2920.00
2019-05-22T08:51:49.711Z,2716.00
2019-05-22T08:52:50.298Z,2828.00
2019-05-22T08:53:50.817Z,2896.00
2019-05-22T08:54:51.266Z,2944.00
2019-05-22T08:55:51.706Z,2868.00
2019-05-22T08:56:52.150Z,2768.00
2019-05-22T08:57:52.942Z,2676.00
2019-05-22T08:58:53.402Z,2628.00
2019-05-22T08:59:53.842Z,2696.00
2019-05-22T09:00:54.299Z,2396.00
2019-05-22T09:01:54.722Z,2136.00
2019-05-22T09:02:55.223Z,2580.00
2019-05-22T09:03:55.682Z,2680.00
2019-05-22T09:04:56.111Z,2696.00
2019-05-22T09:05:56.569Z,2660.00
2019-05-22T09:06:57.008Z,2872.00
2019-05-22T09:07:57.482Z,3016.00
2019-05-22T09:08:57.941Z,2832.00
2019-05-22T09:09:58.380Z,2984.00
2019-05-22T09:10:58.833Z,3088.00
2019-05-22T09:11:59.309Z,3428.00
2019-05-22T09:12:59.811Z,3500.00
2019-05-22T09:14:00.693Z,3624.00
2019-05-22T09:15:01.129Z,3764.00
2019-05-22T09:16:02.066Z,3536.00
2019-05-22T09:17:02.665Z,2952.00
2019-05-22T09:18:03.099Z,2996.00
2019-05-22T09:19:03.573Z,3288.00
2019-05-22T09:20:04.017Z,3068.00
2019-05-22T09:21:04.487Z,3024.00
2019-05-22T09:22:04.927Z,3060.00
2019-05-22T09:23:05.435Z,3552.00
2019-05-22T09:24:05.921Z,3976.00
2019-05-22T09:25:06.519Z,4052.00
2019-05-22T09:26:07.061Z,3296.00
2019-05-22T09:27:07.506Z,2536.00
2019-05-22T09:28:07.941Z,2524.00
2019-05-22T09:29:08.410Z,2904.00
2019-05-22T09:30:08.852Z,3460.00
2019-05-22T09:31:09.295Z,3356.00
2019-05-22T09:32:09.852Z,3356.00
2019-05-22T09:33:10.389Z,3664.00
2019-05-22T09:34:10.924Z,3876.00
2019-05-22T09:35:12.451Z,3724.00
2019-05-22T09:36:12.898Z,3912.00
2019-05-22T09:37:13.326Z,4104.00
2019-05-22T09:38:13.780Z,4360.00
2019-05-22T09:39:14.229Z,4432.00
2019-05-22T09:40:14.666Z,4276.00
2019-05-22T09:41:15.102Z,3776.00
2019-05-22T09:42:15.590Z,3760.00
2019-05-22T09:43:16.064Z,3892.00
2019-05-22T09:44:16.537Z,3820.00
2019-05-22T09:45:16.996Z,4044.00
2019-05-22T09:46:17.430Z,4604.00
2019-05-22T09:47:17.870Z,5368.00
2019-05-22T09:48:18.303Z,4272.00
2019-05-22T09:49:18.861Z,3848.00
2019-05-22T09:50:19.288Z,4736.00
2019-05-22T09:51:19.814Z,4808.00
2019-05-22T09:52:20.241Z,4072.00
2019-05-22T09:53:20.671Z,4296.00
2019-05-22T09:54:21.131Z,4912.00
2019-05-22T09:55:21.619Z,5580.00
2019-05-22T09:56:22.268Z,5104.00
2019-05-22T09:57:22.722Z,4864.00
2019-05-22T09:58:23.149Z,4684.00
2019-05-22T09:59:23.637Z,4440.00
2019-05-22T10:00:24.073Z,3724.00
2019-05-22T10:01:24.498Z,4572.00
2019-05-22T10:02:24.978Z,5032.00
2019-05-22T10:03:25.427Z,5932.00
2019-05-22T10:04:25.971Z,5888.00
2019-05-22T10:05:26.414Z,6940.00
2019-05-22T10:06:26.932Z,4520.00
2019-05-22T10:07:27.383Z,5052.00
2019-05-22T10:08:27.814Z,5004.00
2019-05-22T10:09:28.285Z,3884.00
2019-05-22T10:10:29.831Z,2688.00
2019-05-22T10:11:30.256Z,3280.00
2019-05-22T10:12:30.722Z,4240.00
2019-05-22T10:13:31.251Z,4196.00
2019-05-22T10:14:31.773Z,4284.00
2019-05-22T10:15:32.446Z,4992.00
2019-05-22T10:16:32.889Z,4684.00
2019-05-22T10:17:33.464Z,5244.00
2019-05-22T10:18:33.897Z,6468.00
2019-05-22T10:19:34.428Z,5384.00
2019-05-22T10:20:34.878Z,4660.00
2019-05-22T10:21:35.430Z,4084.00
2019-05-22T10:22:35.874Z,4268.00
2019-05-22T10:23:36.467Z,4508.00
2019-05-22T10:24:37.026Z,4908.00
2019-05-22T10:25:37.607Z,4612.00
2019-05-22T10:26:38.036Z,3872.00
2019-05-22T10:27:40.589Z,2640.00
2019-05-22T10:28:41.060Z,2364.00
2019-05-22T10:29:41.672Z,4536.00
2019-05-22T10:30:42.126Z,4632.00
2019-05-22T10:31:42.595Z,3580.00
2019-05-22T10:32:43.026Z,3936.00
2019-05-22T10:33:43.455Z,3688.00
2019-05-22T10:34:43.963Z,3624.00
2019-05-22T10:35:44.562Z,3716.00
2019-05-22T10:36:45.002Z,4332.00
2019-05-22T10:37:47.543Z,5308.00
2019-05-22T10:38:48.014Z,5820.00
2019-05-22T10:39:48.596Z,5252.00
2019-05-22T10:40:49.034Z,5116.00
2019-05-22T10:41:49.477Z,5312.00
2019-05-22T10:42:50.039Z,6580.00
2019-05-22T10:43:50.516Z,5820.00
2019-05-22T10:44:55.924Z,4236.00
2019-05-22T10:45:56.364Z,2660.00
2019-05-22T10:46:56.788Z,4752.00
2019-05-22T10:47:57.233Z,4564.00
2019-05-22T10:48:57.683Z,3920.00
2019-05-22T10:49:58.147Z,5724.00
2019-05-22T10:50:58.574Z,6784.00
2019-05-22T10:51:59.002Z,6004.00
2019-05-22T10:52:59.514Z,4908.00
2019-05-22T10:53:59.954Z,3680.00
2019-05-22T10:55:00.427Z,5052.00
2019-05-22T10:56:00.884Z,6932.00
2019-05-22T10:57:01.377Z,6388.00
2019-05-22T10:58:01.794Z,5936.00
2019-05-22T10:59:02.379Z,5208.00
2019-05-22T11:00:02.846Z,4740.00
2019-05-22T11:01:03.276Z,5616.00
2019-05-22T11:02:03.703Z,6112.00
2019-05-22T11:03:04.150Z,3824.00
2019-05-22T11:04:04.581Z,4368.00
2019-05-22T11:05:05.055Z,6376.00
2019-05-22T11:06:07.673Z,4440.00
2019-05-22T11:07:08.440Z,4684.00
2019-05-22T11:08:08.894Z,4832.00
2019-05-22T11:09:09.345Z,3540.00
2019-05-22T11:10:09.802Z,5848.00
2019-05-22T11:11:10.360Z,6592.00
2019-05-22T11:12:10.838Z,6060.00
2019-05-22T11:13:11.315Z,3304.00
2019-05-22T11:14:11.751Z,4996.00
2019-05-22T11:15:12.286Z,6844.00
2019-05-22T11:16:12.733Z,3992.00
2019-05-22T11:17:13.191Z,3468.00
2019-05-22T11:18:13.617Z,3432.00
2019-05-22T11:19:14.127Z,3284.00
2019-05-22T11:20:14.581Z,4412.00
2019-05-22T11:21:15.069Z,4880.00
2019-05-22T11:22:15.509Z,6672.00
2019-05-22T11:23:16.047Z,4552.00
2019-05-22T11:24:16.469Z,4208.00
2019-05-22T11:25:16.917Z,5048.00
2019-05-22T11:26:17.346Z,4240.00
2019-05-22T11:27:17.780Z,4436.00
2019-05-22T11:28:18.229Z,4324.00
2019-05-22T11:29:18.669Z,3116.00
2019-05-22T11:30:19.133Z,6452.00
2019-05-22T11:31:19.574Z,8324.00
2019-05-22T11:32:20.020Z,6368.00
2019-05-22T11:33:20.442Z,4248.00
2019-05-22T11:34:20.939Z,4820.00
2019-05-22T11:35:21.535Z,3460.00
2019-05-22T11:36:21.971Z,4320.00
2019-05-22T11:37:23.412Z,5268.00
2019-05-22T11:38:23.905Z,7236.00
2019-05-22T11:39:38.071Z,7284.00
2019-05-22T11:40:30.763Z,4668.00
2019-05-22T11:41:31.192Z,5364.00
2019-05-22T11:42:31.628Z,5840.00
2019-05-22T11:43:32.058Z,6116.00
2019-05-22T11:44:32.483Z,6080.00
2019-05-22T11:45:33.941Z,3932.00
2019-05-22T11:46:34.370Z,6076.00
2019-05-22T11:47:36.815Z,6864.00
2019-05-22T11:48:37.244Z,5652.00
2019-05-22T11:49:37.739Z,6200.00
2019-05-22T11:50:38.217Z,5572.00
2019-05-22T11:51:38.652Z,5028.00
2019-05-22T11:52:39.080Z,4868.00
2019-05-22T11:53:44.499Z,5848.00
2019-05-22T11:54:44.931Z,7044.00
2019-05-22T11:55:46.675Z,8500.00
2019-05-22T11:56:47.157Z,5384.00
2019-05-22T11:57:48.596Z,5356.00
2019-05-22T11:58:49.025Z,6328.00
2019-05-22T11:59:49.473Z,7180.00
2019-05-22T12:00:49.937Z,8716.00
2019-05-22T12:01:52.375Z,4944.00
2019-05-22T12:02:52.805Z,3448.00
2019-05-22T12:03:53.247Z,3252.00
2019-05-22T12:04:53.687Z,3032.00
2019-05-22T12:05:54.147Z,4296.00
2019-05-22T12:06:54.589Z,6220.00
2019-05-22T12:07:55.020Z,5708.00
2019-05-22T12:08:55.540Z,6368.00
2019-05-22T12:09:55.971Z,7364.00
2019-05-22T12:10:56.588Z,9020.00
2019-05-22T12:11:57.071Z,9588.00
2019-05-22T12:12:57.521Z,8808.00
2019-05-22T12:13:57.949Z,8220.00
2019-05-22T12:14:58.442Z,8628.00
2019-05-22T12:16:04.185Z,8204.00
2019-05-22T12:17:04.619Z,7832.00
2019-05-22T12:18:28.066Z,7812.00
2019-05-22T12:19:28.492Z,7856.00
2019-05-22T12:20:36.668Z,7596.00
2019-05-22T12:21:37.116Z,7712.00
2019-05-22T12:22:38.548Z,7464.00
2019-05-22T12:23:38.973Z,8144.00
2019-05-22T12:24:39.439Z,3128.00
2019-05-22T12:25:39.871Z,6200.00
2019-05-22T12:26:40.333Z,10152.00
2019-05-22T12:27:40.768Z,8820.00
2019-05-22T12:28:42.126Z,9392.00
2019-05-22T12:29:42.563Z,7696.00
2019-05-22T12:30:42.993Z,3968.00
2019-05-22T12:31:43.493Z,8192.00
2019-05-22T12:32:44.081Z,8032.00
2019-05-22T12:33:49.477Z,8172.00
2019-05-22T12:34:50.040Z,8628.00
2019-05-22T12:35:50.559Z,3760.00
2019-05-22T12:36:51.609Z,7392.00
2019-05-22T12:37:52.098Z,7776.00
2019-05-22T12:38:52.540Z,8972.00
2019-05-22T12:39:53.053Z,9452.00
2019-05-22T12:40:53.486Z,5980.00
2019-05-22T12:41:53.970Z,3468.00
2019-05-22T12:42:54.414Z,3716.00
2019-05-22T12:43:54.833Z,4152.00
2019-05-22T12:44:55.288Z,4224.00
2019-05-22T12:45:55.725Z,4136.00
2019-05-22T12:46:56.304Z,4224.00
2019-05-22T12:47:56.736Z,6480.00
2019-05-22T12:48:57.180Z,4632.00
2019-05-22T12:49:57.605Z,4712.00
2019-05-22T12:50:58.028Z,3056.00
2019-05-22T12:51:58.470Z,2480.00
2019-05-22T12:52:58.904Z,2796.00
2019-05-22T12:53:59.322Z,6104.00
2019-05-22T12:54:59.752Z,7100.00
2019-05-22T12:56:00.189Z,7644.00
2019-05-22T12:57:00.629Z,7272.00
2019-05-22T12:58:01.059Z,8584.00
2019-05-22T12:59:02.524Z,8480.00
2019-05-22T13:00:03.239Z,3988.00
2019-05-22T13:01:03.706Z,6056.00
2019-05-22T13:02:04.156Z,6404.00
2019-05-22T13:03:04.590Z,4020.00
2019-05-22T13:04:05.022Z,3800.00
2019-05-22T13:05:05.450Z,3784.00
2019-05-22T13:06:05.874Z,7500.00
2019-05-22T13:07:06.382Z,10004.00
2019-05-22T13:08:06.808Z,7044.00
2019-05-22T13:09:07.245Z,9668.00
2019-05-22T13:10:07.670Z,9924.00
2019-05-22T13:11:09.165Z,9260.00